• Join FlightAware (Why Join?)
  • Login
  • US Flag 
01:29AM EDT


 

Airport Tracker/Info


-or-


 

Live Flight TrackerFlight Track Log ✈ EJA583 ✈ 17-Jul-2013 ✈ KSTS - KOXR

Flight Track Log - Related Links

Times and Time Zones

All times are in EDT time to prevent confusion due to time zone crossing. See the EJA583 flight status page for this flight to view local times or setup timezone preferences in your user account.

Time Position Orientation Groundspeed Altitude Reporting Facility
EDT Latitude Longitude Course Direction KTS MPH feet Rate Location/Type
03:00PM 38.4225 -122.7561 154° Southeast 221 254 5,500  Level Oakland Center
03:01PM 38.3511 -122.7289 163° South 261 300 8,800 2,820 Climbing Oakland Center
03:02PM 37.9840 -122.4174 142° Southeast  Level FlightAware Approximate
03:02PM 38.2756 -122.6994 163° South 286 329 11,300  Level Oakland Center
03:03PM 37.8985 -122.3490 152° Southeast  Level FlightAware Approximate
03:03PM 38.1914 -122.6647 162° South 317 365 12,700  Level Oakland Center
03:04PM 37.8087 -122.2891 152° Southeast  Level FlightAware Approximate
03:04PM 38.1036 -122.6269 161° South 331 381 14,400  Level Oakland Center
03:05PM 37.5178 -122.0940 155° Southeast  Level FlightAware Approximate
03:05PM 38.0139 -122.5858 160° South 340 391 16,100  Level Oakland Center
03:06PM 37.9239 -122.5153 148° Southeast 365 420 17,800 1,500 Climbing Oakland Center
03:07PM 37.8372 -122.4436 147° Southeast 366 421 19,200 1,500 Climbing Oakland Center
03:08PM 37.7528 -122.3733 147° Southeast 364 419 20,900 1,560 Climbing Oakland Center
03:09PM 37.6678 -122.3022 146° Southeast 365 420 22,500 1,500 Climbing Oakland Center
03:10PM 37.5825 -122.2292 146° Southeast 368 423 24,100 1,620 Climbing Oakland Center
03:11PM 37.4769 -122.1417 147° Southeast 376 433 25,900 1,380 Climbing Oakland Center
03:12PM 37.3881 -122.0669 146° Southeast 382 440 27,000 480 Climbing Oakland Center
03:13PM 37.2947 -121.9889 146° Southeast 399 459 27,000  Level Oakland Center
03:15PM 37.1969 -121.9072 146° Southeast 420 483 27,000  Level Oakland Center
03:16PM 37.0983 -121.8272 147° Southeast 425 489 27,000  Level Oakland Center
03:17PM 36.9994 -121.7442 146° Southeast 428 493 27,000  Level Oakland Center
03:18PM 36.8997 -121.6617 147° Southeast 430 495 27,000  Level Oakland Center
03:19PM 36.7906 -121.5731 147° Southeast 431 496 27,000  Level Oakland Center
03:20PM 36.6906 -121.4936 147° Southeast 429 494 27,000  Level Oakland Center
03:21PM 36.5903 -121.4117 147° Southeast 431 496 27,000  Level Oakland Center
03:22PM 36.4897 -121.3322 148° Southeast 428 493 27,000  Level Oakland Center
03:23PM 36.3697 -121.2358 147° Southeast 428 493 27,000  Level Oakland Center
03:24PM 36.2700 -121.1547 147° Southeast 430 495 27,000  Level Oakland Center
03:25PM 36.1750 -121.0711 145° Southeast 419 482 27,000  Level Oakland Center
03:26PM 36.0969 -120.9617 131° Southeast 423 487 27,000  Level Oakland Center
03:27PM 36.0197 -120.8522 131° Southeast 422 486 27,000  Level Oakland Center
03:28PM 35.9303 -120.7617 141° Southeast 418 481 27,000  Level Oakland Center
03:29PM 35.8308 -120.6928 151° Southeast 411 473 27,000  Level Oakland Center
03:30PM 35.7308 -120.6214 150° Southeast 414 476 27,000  Level Oakland Center
03:31PM 35.6122 -120.5372 150° Southeast 412 474 27,000 -300 Level Oakland Center
03:32PM 35.5128 -120.4681 150° Southeast 411 473 26,500 -720 Descending Oakland Center
03:33PM 35.4242 -120.4064 150° Southeast 416 479 25,600 -960 Descending Oakland Center
03:34PM 35.3178 -120.3283 149° Southeast 437 503 24,600 -960 Descending Oakland Center
03:35PM 35.2108 -120.2547 151° Southeast 431 496 23,700 -1,320 Descending Oakland Center
03:36PM 35.0897 -120.1708 150° Southeast 421 484 22,000 -1,860 Descending Oakland Center
03:37PM 34.9953 -120.1050 150° Southeast 403 464 20,000 -2,040 Descending Oakland Center
03:38PM 34.9022 -120.0411 151° Southeast 391 450 17,900 -1,980 Descending Oakland Center
03:39PM 34.8092 -119.9769 150° Southeast 387 445 16,000 -1,920 Descending Oakland Center
03:40PM 34.7181 -119.9142 150° Southeast 381 438 14,000 -1,980 Descending Oakland Center
03:41PM 34.6297 -119.8542 151° Southeast 373 429 12,000 -1,320 Descending Oakland Center
03:42PM 34.5156 -119.7747 150° Southeast 353 406 11,100 -480 Descending Los Angeles Center
03:43PM 34.4581 -119.6781 126° Southeast 355 409 11,000 -60 Descending Los Angeles Center
03:44PM 34.4042 -119.5794 123° Southeast 353 406 11,000  Level Los Angeles Center
03:46PM 34.3508 -119.4797 123° Southeast 352 405 11,000 -660 Level Los Angeles Center
03:47PM 34.3017 -119.3908 124° Southeast 314 361 9,700 -1,740 Descending Los Angeles Center
03:48PM 34.2600 -119.3136 123° Southeast 276 318 7,500 -2,820 Descending Los Angeles Center
03:49PM 34.2094 -119.2336 127° Southeast 267 307 4,100 -2,520 Descending Los Angeles Center
03:50PM 34.1744 -119.1644 121° Southeast 238 274 2,600 -1,020 Descending Los Angeles Center
03:51PM 34.2086 -119.1069 54° Northeast 268 308 2,000 -540 Descending Los Angeles Center
03:53PM 34.2008 -119.2072 265° West  Level Estimated
04:00PM 34.2008 -119.2072 202° Southwest  Level Estimated